sensor_id;sensor_type;location;lat;lon;timestamp;P1;durP1;ratioP1;P2;durP2;ratioP2
66087;SDS011;52872;52.994;6.940;2023-03-01T00:01:38;26.73;;;16.90;;
66087;SDS011;52872;52.994;6.940;2023-03-01T00:04:06;27.35;;;16.38;;
66087;SDS011;52872;52.994;6.940;2023-03-01T00:06:33;25.85;;;16.00;;
66087;SDS011;52872;52.994;6.940;2023-03-01T00:09:00;25.30;;;16.77;;
66087;SDS011;52872;52.994;6.940;2023-03-01T00:11:28;25.60;;;16.90;;
66087;SDS011;52872;52.994;6.940;2023-03-01T00:13:57;25.73;;;16.15;;
66087;SDS011;52872;52.994;6.940;2023-03-01T00:16:31;26.85;;;17.27;;
66087;SDS011;52872;52.994;6.940;2023-03-01T00:19:05;27.80;;;16.95;;
66087;SDS011;52872;52.994;6.940;2023-03-01T00:21:33;24.55;;;16.00;;
66087;SDS011;52872;52.994;6.940;2023-03-01T00:24:01;25.83;;;15.90;;
66087;SDS011;52872;52.994;6.940;2023-03-01T00:26:29;21.73;;;14.98;;
66087;SDS011;52872;52.994;6.940;2023-03-01T00:28:57;21.20;;;14.13;;
66087;SDS011;52872;52.994;6.940;2023-03-01T00:31:27;20.98;;;14.27;;
66087;SDS011;52872;52.994;6.940;2023-03-01T00:33:56;20.10;;;13.82;;
66087;SDS011;52872;52.994;6.940;2023-03-01T00:36:26;22.98;;;15.32;;
66087;SDS011;52872;52.994;6.940;2023-03-01T00:38:58;23.58;;;14.50;;
66087;SDS011;52872;52.994;6.940;2023-03-01T00:41:25;21.88;;;13.75;;
66087;SDS011;52872;52.994;6.940;2023-03-01T00:43:53;23.10;;;14.98;;
66087;SDS011;52872;52.994;6.940;2023-03-01T00:46:21;23.45;;;14.88;;
66087;SDS011;52872;52.994;6.940;2023-03-01T00:48:50;25.10;;;15.00;;
66087;SDS011;52872;52.994;6.940;2023-03-01T00:51:18;22.17;;;13.40;;
66087;SDS011;52872;52.994;6.940;2023-03-01T00:53:47;21.15;;;13.05;;
66087;SDS011;52872;52.994;6.940;2023-03-01T00:56:18;18.42;;;11.68;;
66087;SDS011;52872;52.994;6.940;2023-03-01T00:58:46;20.48;;;11.90;;
66087;SDS011;52872;52.994;6.940;2023-03-01T01:01:14;15.32;;;10.60;;
66087;SDS011;52872;52.994;6.940;2023-03-01T01:03:46;16.75;;;10.63;;
66087;SDS011;52872;52.994;6.940;2023-03-01T01:06:19;15.18;;;10.02;;
66087;SDS011;52872;52.994;6.940;2023-03-01T01:08:48;16.05;;;10.60;;
66087;SDS011;52872;52.994;6.940;2023-03-01T01:11:16;17.83;;;9.70;;
66087;SDS011;52872;52.994;6.940;2023-03-01T01:13:44;18.95;;;10.27;;
66087;SDS011;52872;52.994;6.940;2023-03-01T01:16:12;16.90;;;11.40;;
66087;SDS011;52872;52.994;6.940;2023-03-01T01:18:40;19.48;;;12.25;;
66087;SDS011;52872;52.994;6.940;2023-03-01T01:21:09;17.52;;;11.68;;
66087;SDS011;52872;52.994;6.940;2023-03-01T01:23:38;17.58;;;11.63;;
66087;SDS011;52872;52.994;6.940;2023-03-01T01:26:10;18.52;;;12.25;;
66087;SDS011;52872;52.994;6.940;2023-03-01T01:28:38;20.50;;;12.68;;
66087;SDS011;52872;52.994;6.940;2023-03-01T01:31:06;19.25;;;12.75;;
66087;SDS011;52872;52.994;6.940;2023-03-01T01:33:33;21.00;;;12.77;;
66087;SDS011;52872;52.994;6.940;2023-03-01T01:36:01;17.95;;;12.38;;
66087;SDS011;52872;52.994;6.940;2023-03-01T01:38:28;19.38;;;12.45;;
66087;SDS011;52872;52.994;6.940;2023-03-01T01:40:55;21.13;;;12.52;;
66087;SDS011;52872;52.994;6.940;2023-03-01T01:43:30;20.05;;;13.90;;
66087;SDS011;52872;52.994;6.940;2023-03-01T01:46:04;19.77;;;13.18;;
66087;SDS011;52872;52.994;6.940;2023-03-01T01:51:51;21.60;;;13.77;;
66087;SDS011;52872;52.994;6.940;2023-03-01T01:54:29;17.77;;;12.52;;
66087;SDS011;52872;52.994;6.940;2023-03-01T01:57:03;17.60;;;11.65;;
66087;SDS011;52872;52.994;6.940;2023-03-01T01:59:45;16.40;;;12.38;;
66087;SDS011;52872;52.994;6.940;2023-03-01T02:02:18;19.30;;;13.23;;
66087;SDS011;52872;52.994;6.940;2023-03-01T02:04:46;17.70;;;12.77;;
66087;SDS011;52872;52.994;6.940;2023-03-01T02:07:17;19.73;;;12.55;;
66087;SDS011;52872;52.994;6.940;2023-03-01T02:09:47;18.63;;;11.75;;
66087;SDS011;52872;52.994;6.940;2023-03-01T02:12:17;19.08;;;12.38;;
66087;SDS011;52872;52.994;6.940;2023-03-01T02:14:47;16.98;;;11.98;;
66087;SDS011;52872;52.994;6.940;2023-03-01T02:17:24;18.88;;;12.20;;
66087;SDS011;52872;52.994;6.940;2023-03-01T02:22:44;16.08;;;12.68;;
66087;SDS011;52872;52.994;6.940;2023-03-01T02:27:49;19.60;;;13.02;;
66087;SDS011;52872;52.994;6.940;2023-03-01T02:30:37;21.63;;;13.85;;
66087;SDS011;52872;52.994;6.940;2023-03-01T02:33:25;22.40;;;14.32;;
66087;SDS011;52872;52.994;6.940;2023-03-01T02:35:53;22.40;;;14.40;;
66087;SDS011;52872;52.994;6.940;2023-03-01T02:38:21;20.40;;;13.40;;
66087;SDS011;52872;52.994;6.940;2023-03-01T02:40:49;19.98;;;13.48;;
66087;SDS011;52872;52.994;6.940;2023-03-01T02:43:17;20.85;;;13.35;;
66087;SDS011;52872;52.994;6.940;2023-03-01T02:45:50;22.25;;;13.60;;
66087;SDS011;52872;52.994;6.940;2023-03-01T02:48:19;19.30;;;13.13;;
66087;SDS011;52872;52.994;6.940;2023-03-01T02:50:58;19.23;;;13.45;;
66087;SDS011;52872;52.994;6.940;2023-03-01T02:56:16;19.25;;;13.32;;
66087;SDS011;52872;52.994;6.940;2023-03-01T02:58:44;22.27;;;13.55;;
66087;SDS011;52872;52.994;6.940;2023-03-01T03:01:15;20.85;;;13.45;;
66087;SDS011;52872;52.994;6.940;2023-03-01T03:03:42;22.48;;;13.80;;
66087;SDS011;52872;52.994;6.940;2023-03-01T03:06:09;22.48;;;14.38;;
66087;SDS011;52872;52.994;6.940;2023-03-01T03:08:37;23.00;;;14.40;;
66087;SDS011;52872;52.994;6.940;2023-03-01T03:11:04;23.45;;;14.55;;
66087;SDS011;52872;52.994;6.940;2023-03-01T03:13:31;21.23;;;13.48;;
66087;SDS011;52872;52.994;6.940;2023-03-01T03:15:58;21.35;;;13.98;;
66087;SDS011;52872;52.994;6.940;2023-03-01T03:18:25;22.13;;;14.80;;
66087;SDS011;52872;52.994;6.940;2023-03-01T03:20:52;23.83;;;14.73;;
66087;SDS011;52872;52.994;6.940;2023-03-01T03:23:20;21.50;;;13.50;;
66087;SDS011;52872;52.994;6.940;2023-03-01T03:25:51;22.60;;;13.85;;
66087;SDS011;52872;52.994;6.940;2023-03-01T03:28:18;22.00;;;13.80;;
66087;SDS011;52872;52.994;6.940;2023-03-01T03:30:45;20.27;;;13.18;;
66087;SDS011;52872;52.994;6.940;2023-03-01T03:33:13;20.38;;;13.60;;
66087;SDS011;52872;52.994;6.940;2023-03-01T03:35:44;21.33;;;14.70;;
66087;SDS011;52872;52.994;6.940;2023-03-01T03:38:14;21.90;;;13.75;;
66087;SDS011;52872;52.994;6.940;2023-03-01T03:40:48;20.73;;;13.90;;
66087;SDS011;52872;52.994;6.940;2023-03-01T03:43:29;18.25;;;13.20;;
66087;SDS011;52872;52.994;6.940;2023-03-01T03:45:58;19.58;;;14.15;;
66087;SDS011;52872;52.994;6.940;2023-03-01T03:48:26;18.63;;;13.43;;
66087;SDS011;52872;52.994;6.940;2023-03-01T03:50:54;18.92;;;13.02;;
66087;SDS011;52872;52.994;6.940;2023-03-01T03:53:22;16.48;;;11.80;;
66087;SDS011;52872;52.994;6.940;2023-03-01T03:55:51;18.67;;;12.25;;
66087;SDS011;52872;52.994;6.940;2023-03-01T03:58:19;19.63;;;12.43;;
66087;SDS011;52872;52.994;6.940;2023-03-01T04:00:49;17.60;;;12.52;;
66087;SDS011;52872;52.994;6.940;2023-03-01T04:03:18;18.45;;;12.63;;
66087;SDS011;52872;52.994;6.940;2023-03-01T04:05:46;18.63;;;13.02;;
66087;SDS011;52872;52.994;6.940;2023-03-01T04:08:14;16.35;;;13.00;;
66087;SDS011;52872;52.994;6.940;2023-03-01T04:10:45;19.42;;;13.52;;
66087;SDS011;52872;52.994;6.940;2023-03-01T04:13:15;16.63;;;12.27;;
66087;SDS011;52872;52.994;6.940;2023-03-01T04:15:46;17.70;;;12.75;;
66087;SDS011;52872;52.994;6.940;2023-03-01T04:18:17;16.60;;;11.85;;
66087;SDS011;52872;52.994;6.940;2023-03-01T04:20:46;17.58;;;12.65;;
66087;SDS011;52872;52.994;6.940;2023-03-01T04:23:14;17.67;;;12.52;;
66087;SDS011;52872;52.994;6.940;2023-03-01T04:28:22;17.17;;;12.07;;
66087;SDS011;52872;52.994;6.940;2023-03-01T04:30:51;17.65;;;12.88;;
66087;SDS011;52872;52.994;6.940;2023-03-01T04:33:22;17.55;;;11.80;;
66087;SDS011;52872;52.994;6.940;2023-03-01T04:35:50;17.67;;;12.65;;
66087;SDS011;52872;52.994;6.940;2023-03-01T04:38:18;17.25;;;12.73;;
66087;SDS011;52872;52.994;6.940;2023-03-01T04:40:46;16.77;;;11.85;;
66087;SDS011;52872;52.994;6.940;2023-03-01T04:43:13;18.45;;;13.05;;
66087;SDS011;52872;52.994;6.940;2023-03-01T04:45:41;17.70;;;13.43;;
66087;SDS011;52872;52.994;6.940;2023-03-01T04:48:08;19.95;;;13.73;;
66087;SDS011;52872;52.994;6.940;2023-03-01T04:50:35;18.27;;;12.90;;
66087;SDS011;52872;52.994;6.940;2023-03-01T04:53:02;17.25;;;12.90;;
66087;SDS011;52872;52.994;6.940;2023-03-01T04:55:29;19.27;;;13.20;;
66087;SDS011;52872;52.994;6.940;2023-03-01T04:57:56;22.42;;;14.90;;
66087;SDS011;52872;52.994;6.940;2023-03-01T05:00:23;19.23;;;13.38;;
66087;SDS011;52872;52.994;6.940;2023-03-01T05:05:25;18.65;;;13.93;;
66087;SDS011;52872;52.994;6.940;2023-03-01T05:08:01;18.13;;;12.90;;
66087;SDS011;52872;52.994;6.940;2023-03-01T05:10:34;20.55;;;13.32;;
66087;SDS011;52872;52.994;6.940;2023-03-01T05:13:02;19.02;;;13.20;;
66087;SDS011;52872;52.994;6.940;2023-03-01T05:15:30;19.20;;;13.73;;
66087;SDS011;52872;52.994;6.940;2023-03-01T05:17:58;25.58;;;16.08;;
66087;SDS011;52872;52.994;6.940;2023-03-01T05:20:27;20.05;;;14.02;;
66087;SDS011;52872;52.994;6.940;2023-03-01T05:22:57;20.55;;;14.52;;
66087;SDS011;52872;52.994;6.940;2023-03-01T05:25:25;19.17;;;13.20;;
66087;SDS011;52872;52.994;6.940;2023-03-01T05:27:53;19.45;;;14.00;;
66087;SDS011;52872;52.994;6.940;2023-03-01T05:30:20;18.67;;;13.23;;
66087;SDS011;52872;52.994;6.940;2023-03-01T05:32:48;18.45;;;13.00;;
66087;SDS011;52872;52.994;6.940;2023-03-01T05:35:21;18.90;;;13.93;;
66087;SDS011;52872;52.994;6.940;2023-03-01T05:37:49;21.50;;;12.93;;
66087;SDS011;52872;52.994;6.940;2023-03-01T05:40:20;18.23;;;13.43;;
66087;SDS011;52872;52.994;6.940;2023-03-01T05:42:52;18.60;;;12.88;;
66087;SDS011;52872;52.994;6.940;2023-03-01T05:45:20;20.92;;;14.45;;
66087;SDS011;52872;52.994;6.940;2023-03-01T05:47:49;19.73;;;14.38;;
66087;SDS011;52872;52.994;6.940;2023-03-01T05:50:18;19.08;;;13.15;;
66087;SDS011;52872;52.994;6.940;2023-03-01T05:52:50;18.77;;;13.45;;
66087;SDS011;52872;52.994;6.940;2023-03-01T05:55:22;20.13;;;13.35;;
66087;SDS011;52872;52.994;6.940;2023-03-01T05:57:49;19.30;;;13.68;;
66087;SDS011;52872;52.994;6.940;2023-03-01T06:00:18;22.00;;;15.25;;
66087;SDS011;52872;52.994;6.940;2023-03-01T06:02:48;20.33;;;14.73;;
66087;SDS011;52872;52.994;6.940;2023-03-01T06:05:15;18.63;;;13.20;;
66087;SDS011;52872;52.994;6.940;2023-03-01T06:07:42;20.58;;;14.77;;
66087;SDS011;52872;52.994;6.940;2023-03-01T06:10:10;19.33;;;13.98;;
66087;SDS011;52872;52.994;6.940;2023-03-01T06:12:38;19.00;;;13.93;;
66087;SDS011;52872;52.994;6.940;2023-03-01T06:15:07;20.48;;;14.07;;
66087;SDS011;52872;52.994;6.940;2023-03-01T06:17:36;18.90;;;14.05;;
66087;SDS011;52872;52.994;6.940;2023-03-01T06:20:05;22.30;;;14.02;;
66087;SDS011;52872;52.994;6.940;2023-03-01T06:22:34;20.17;;;14.15;;
66087;SDS011;52872;52.994;6.940;2023-03-01T06:25:02;20.88;;;14.43;;
66087;SDS011;52872;52.994;6.940;2023-03-01T06:27:29;21.10;;;13.93;;
66087;SDS011;52872;52.994;6.940;2023-03-01T06:29:56;19.77;;;14.45;;
66087;SDS011;52872;52.994;6.940;2023-03-01T06:32:23;19.15;;;14.07;;
66087;SDS011;52872;52.994;6.940;2023-03-01T06:34:50;20.42;;;14.57;;
66087;SDS011;52872;52.994;6.940;2023-03-01T06:37:17;21.85;;;14.82;;
66087;SDS011;52872;52.994;6.940;2023-03-01T06:39:44;19.85;;;14.13;;
66087;SDS011;52872;52.994;6.940;2023-03-01T06:42:11;23.00;;;15.45;;
66087;SDS011;52872;52.994;6.940;2023-03-01T06:44:37;20.75;;;14.75;;
66087;SDS011;52872;52.994;6.940;2023-03-01T06:47:05;23.55;;;14.60;;
66087;SDS011;52872;52.994;6.940;2023-03-01T06:49:31;18.02;;;13.55;;
66087;SDS011;52872;52.994;6.940;2023-03-01T06:51:58;18.48;;;13.70;;
66087;SDS011;52872;52.994;6.940;2023-03-01T06:54:25;18.65;;;13.77;;
66087;SDS011;52872;52.994;6.940;2023-03-01T06:56:52;20.15;;;13.75;;
66087;SDS011;52872;52.994;6.940;2023-03-01T06:59:20;19.20;;;13.05;;
66087;SDS011;52872;52.994;6.940;2023-03-01T07:01:47;19.92;;;14.05;;
66087;SDS011;52872;52.994;6.940;2023-03-01T07:04:14;18.75;;;14.50;;
66087;SDS011;52872;52.994;6.940;2023-03-01T07:06:41;18.27;;;13.60;;
66087;SDS011;52872;52.994;6.940;2023-03-01T07:09:08;18.05;;;13.30;;
66087;SDS011;52872;52.994;6.940;2023-03-01T07:11:34;16.52;;;12.10;;
66087;SDS011;52872;52.994;6.940;2023-03-01T07:14:02;16.73;;;12.82;;
66087;SDS011;52872;52.994;6.940;2023-03-01T07:16:29;15.80;;;12.48;;
66087;SDS011;52872;52.994;6.940;2023-03-01T07:18:56;17.70;;;12.48;;
66087;SDS011;52872;52.994;6.940;2023-03-01T07:21:25;16.92;;;12.65;;
66087;SDS011;52872;52.994;6.940;2023-03-01T07:23:52;18.40;;;13.05;;
66087;SDS011;52872;52.994;6.940;2023-03-01T07:26:18;17.85;;;12.93;;
66087;SDS011;52872;52.994;6.940;2023-03-01T07:28:45;16.45;;;12.20;;
66087;SDS011;52872;52.994;6.940;2023-03-01T07:31:12;16.63;;;12.15;;
66087;SDS011;52872;52.994;6.940;2023-03-01T07:33:40;16.35;;;12.20;;
66087;SDS011;52872;52.994;6.940;2023-03-01T07:36:07;15.60;;;12.02;;
66087;SDS011;52872;52.994;6.940;2023-03-01T07:38:35;15.70;;;13.85;;
66087;SDS011;52872;52.994;6.940;2023-03-01T07:41:02;17.63;;;14.05;;
66087;SDS011;52872;52.994;6.940;2023-03-01T07:43:30;19.52;;;13.95;;
66087;SDS011;52872;52.994;6.940;2023-03-01T07:45:58;20.08;;;15.48;;
66087;SDS011;52872;52.994;6.940;2023-03-01T07:48:30;34.53;;;21.83;;
66087;SDS011;52872;52.994;6.940;2023-03-01T07:50:58;34.65;;;21.45;;
66087;SDS011;52872;52.994;6.940;2023-03-01T07:53:26;34.95;;;22.15;;
66087;SDS011;52872;52.994;6.940;2023-03-01T07:58:37;34.65;;;23.20;;
66087;SDS011;52872;52.994;6.940;2023-03-01T08:01:06;36.65;;;25.40;;
66087;SDS011;52872;52.994;6.940;2023-03-01T08:03:35;28.52;;;20.83;;
66087;SDS011;52872;52.994;6.940;2023-03-01T08:06:03;30.83;;;21.85;;
66087;SDS011;52872;52.994;6.940;2023-03-01T08:08:32;33.53;;;22.42;;
66087;SDS011;52872;52.994;6.940;2023-03-01T08:11:00;28.77;;;21.90;;
66087;SDS011;52872;52.994;6.940;2023-03-01T08:13:29;28.05;;;20.20;;
66087;SDS011;52872;52.994;6.940;2023-03-01T08:16:04;27.27;;;21.35;;
66087;SDS011;52872;52.994;6.940;2023-03-01T08:18:33;26.20;;;20.20;;
66087;SDS011;52872;52.994;6.940;2023-03-01T08:21:01;28.05;;;20.75;;
66087;SDS011;52872;52.994;6.940;2023-03-01T08:23:29;29.02;;;22.50;;
66087;SDS011;52872;52.994;6.940;2023-03-01T08:26:03;27.70;;;22.27;;
66087;SDS011;52872;52.994;6.940;2023-03-01T08:28:35;32.55;;;20.90;;
66087;SDS011;52872;52.994;6.940;2023-03-01T08:31:02;29.75;;;22.80;;
66087;SDS011;52872;52.994;6.940;2023-03-01T08:33:29;39.15;;;24.65;;
66087;SDS011;52872;52.994;6.940;2023-03-01T08:36:03;34.22;;;25.42;;
66087;SDS011;52872;52.994;6.940;2023-03-01T08:38:34;35.45;;;23.88;;
66087;SDS011;52872;52.994;6.940;2023-03-01T08:41:01;34.88;;;25.15;;
66087;SDS011;52872;52.994;6.940;2023-03-01T08:43:29;38.03;;;25.63;;
66087;SDS011;52872;52.994;6.940;2023-03-01T08:45:56;37.15;;;25.70;;
66087;SDS011;52872;52.994;6.940;2023-03-01T08:48:24;37.03;;;25.17;;
66087;SDS011;52872;52.994;6.940;2023-03-01T08:50:53;37.17;;;24.67;;
66087;SDS011;52872;52.994;6.940;2023-03-01T08:53:20;39.58;;;27.02;;
66087;SDS011;52872;52.994;6.940;2023-03-01T08:55:47;38.13;;;24.65;;
66087;SDS011;52872;52.994;6.940;2023-03-01T08:58:16;32.75;;;23.90;;
66087;SDS011;52872;52.994;6.940;2023-03-01T09:00:43;36.80;;;24.17;;
66087;SDS011;52872;52.994;6.940;2023-03-01T09:03:10;36.58;;;24.70;;
66087;SDS011;52872;52.994;6.940;2023-03-01T09:05:36;32.47;;;23.13;;
66087;SDS011;52872;52.994;6.940;2023-03-01T09:08:04;34.55;;;23.58;;
66087;SDS011;52872;52.994;6.940;2023-03-01T09:10:31;36.88;;;24.73;;
66087;SDS011;52872;52.994;6.940;2023-03-01T09:12:58;32.03;;;21.73;;
66087;SDS011;52872;52.994;6.940;2023-03-01T09:15:25;32.30;;;21.05;;
66087;SDS011;52872;52.994;6.940;2023-03-01T09:17:52;26.00;;;19.13;;
66087;SDS011;52872;52.994;6.940;2023-03-01T09:20:19;24.90;;;18.08;;
66087;SDS011;52872;52.994;6.940;2023-03-01T09:22:46;32.58;;;22.05;;
66087;SDS011;52872;52.994;6.940;2023-03-01T09:25:13;31.20;;;20.90;;
66087;SDS011;52872;52.994;6.940;2023-03-01T09:27:40;27.63;;;19.40;;
66087;SDS011;52872;52.994;6.940;2023-03-01T09:30:08;32.50;;;18.35;;
66087;SDS011;52872;52.994;6.940;2023-03-01T09:32:36;47.58;;;18.10;;
66087;SDS011;52872;52.994;6.940;2023-03-01T09:35:03;44.88;;;18.13;;
66087;SDS011;52872;52.994;6.940;2023-03-01T09:37:32;48.17;;;19.65;;
66087;SDS011;52872;52.994;6.940;2023-03-01T09:40:00;26.50;;;19.30;;
66087;SDS011;52872;52.994;6.940;2023-03-01T09:42:30;28.55;;;19.08;;
66087;SDS011;52872;52.994;6.940;2023-03-01T09:45:06;28.20;;;19.70;;
66087;SDS011;52872;52.994;6.940;2023-03-01T09:47:47;25.80;;;19.05;;
66087;SDS011;52872;52.994;6.940;2023-03-01T09:50:18;28.90;;;19.83;;
66087;SDS011;52872;52.994;6.940;2023-03-01T09:55:31;25.40;;;18.30;;
66087;SDS011;52872;52.994;6.940;2023-03-01T09:58:28;28.08;;;19.73;;
66087;SDS011;52872;52.994;6.940;2023-03-01T10:03:43;29.45;;;19.25;;
66087;SDS011;52872;52.994;6.940;2023-03-01T10:06:21;27.05;;;19.85;;
66087;SDS011;52872;52.994;6.940;2023-03-01T10:11:31;26.48;;;19.30;;
66087;SDS011;52872;52.994;6.940;2023-03-01T10:17:44;26.77;;;20.05;;
66087;SDS011;52872;52.994;6.940;2023-03-01T10:19:46;29.85;;;22.55;;
66087;SDS011;52872;52.994;6.940;2023-03-01T10:22:15;27.50;;;20.77;;
66087;SDS011;52872;52.994;6.940;2023-03-01T10:32:58;29.15;;;18.63;;
66087;SDS011;52872;52.994;6.940;2023-03-01T10:35:29;28.23;;;18.95;;
66087;SDS011;52872;52.994;6.940;2023-03-01T10:38:04;25.67;;;18.05;;
66087;SDS011;52872;52.994;6.940;2023-03-01T10:40:36;28.75;;;18.85;;
66087;SDS011;52872;52.994;6.940;2023-03-01T10:43:26;21.85;;;16.17;;
66087;SDS011;52872;52.994;6.940;2023-03-01T10:45:58;27.42;;;19.60;;
66087;SDS011;52872;52.994;6.940;2023-03-01T10:48:26;20.33;;;15.88;;
66087;SDS011;52872;52.994;6.940;2023-03-01T10:56:23;17.13;;;12.63;;
66087;SDS011;52872;52.994;6.940;2023-03-01T10:58:59;15.40;;;11.43;;
66087;SDS011;52872;52.994;6.940;2023-03-01T11:01:28;18.45;;;12.93;;
66087;SDS011;52872;52.994;6.940;2023-03-01T11:06:32;12.20;;;9.38;;
66087;SDS011;52872;52.994;6.940;2023-03-01T11:09:13;16.48;;;11.10;;
66087;SDS011;52872;52.994;6.940;2023-03-01T11:11:42;19.05;;;12.40;;
66087;SDS011;52872;52.994;6.940;2023-03-01T11:14:15;19.33;;;13.95;;
66087;SDS011;52872;52.994;6.940;2023-03-01T11:19:38;16.40;;;12.18;;
66087;SDS011;52872;52.994;6.940;2023-03-01T11:22:07;19.10;;;11.45;;
66087;SDS011;52872;52.994;6.940;2023-03-01T11:27:35;21.73;;;14.23;;
66087;SDS011;52872;52.994;6.940;2023-03-01T11:32:53;22.65;;;16.08;;
66087;SDS011;52872;52.994;6.940;2023-03-01T11:35:30;20.48;;;14.27;;
66087;SDS011;52872;52.994;6.940;2023-03-01T11:41:30;19.65;;;12.88;;
66087;SDS011;52872;52.994;6.940;2023-03-01T12:02:59;17.70;;;13.38;;
66087;SDS011;52872;52.994;6.940;2023-03-01T12:20:41;15.00;;;11.20;;
66087;SDS011;52872;52.994;6.940;2023-03-01T12:26:44;18.10;;;12.98;;
66087;SDS011;52872;52.994;6.940;2023-03-01T12:36:48;15.82;;;11.13;;
66087;SDS011;52872;52.994;6.940;2023-03-01T12:44:48;15.70;;;12.43;;
66087;SDS011;52872;52.994;6.940;2023-03-01T12:50:21;15.88;;;11.40;;
66087;SDS011;52872;52.994;6.940;2023-03-01T12:52:53;12.80;;;9.95;;
66087;SDS011;52872;52.994;6.940;2023-03-01T13:04:14;14.65;;;11.80;;
66087;SDS011;52872;52.994;6.940;2023-03-01T13:07:21;14.15;;;11.13;;
66087;SDS011;52872;52.994;6.940;2023-03-01T13:10:04;13.75;;;10.73;;
66087;SDS011;52872;52.994;6.940;2023-03-01T13:12:41;12.85;;;11.48;;
66087;SDS011;52872;52.994;6.940;2023-03-01T13:17:51;12.68;;;8.63;;
66087;SDS011;52872;52.994;6.940;2023-03-01T13:20:32;16.52;;;11.10;;
66087;SDS011;52872;52.994;6.940;2023-03-01T13:23:12;12.98;;;9.80;;
66087;SDS011;52872;52.994;6.940;2023-03-01T13:31:08;12.43;;;10.20;;
66087;SDS011;52872;52.994;6.940;2023-03-01T13:33:41;13.68;;;10.75;;
66087;SDS011;52872;52.994;6.940;2023-03-01T13:46:59;13.40;;;9.90;;
66087;SDS011;52872;52.994;6.940;2023-03-01T13:49:35;10.52;;;8.75;;
66087;SDS011;52872;52.994;6.940;2023-03-01T13:52:27;10.63;;;8.85;;
66087;SDS011;52872;52.994;6.940;2023-03-01T13:55:14;11.95;;;9.70;;
66087;SDS011;52872;52.994;6.940;2023-03-01T13:58:01;13.82;;;10.25;;
66087;SDS011;52872;52.994;6.940;2023-03-01T14:00:39;13.20;;;10.57;;
66087;SDS011;52872;52.994;6.940;2023-03-01T14:05:40;13.55;;;10.02;;
66087;SDS011;52872;52.994;6.940;2023-03-01T14:08:22;14.30;;;10.48;;
66087;SDS011;52872;52.994;6.940;2023-03-01T14:10:54;12.50;;;9.90;;
66087;SDS011;52872;52.994;6.940;2023-03-01T14:19:24;13.27;;;10.63;;
66087;SDS011;52872;52.994;6.940;2023-03-01T14:24:46;13.45;;;10.50;;
66087;SDS011;52872;52.994;6.940;2023-03-01T14:36:08;12.23;;;10.82;;
66087;SDS011;52872;52.994;6.940;2023-03-01T14:38:44;14.05;;;10.80;;
66087;SDS011;52872;52.994;6.940;2023-03-01T14:41:34;13.02;;;9.70;;
66087;SDS011;52872;52.994;6.940;2023-03-01T14:44:03;13.85;;;10.85;;
66087;SDS011;52872;52.994;6.940;2023-03-01T14:46:34;13.30;;;11.73;;
66087;SDS011;52872;52.994;6.940;2023-03-01T14:49:04;13.23;;;11.50;;
66087;SDS011;52872;52.994;6.940;2023-03-01T14:51:47;13.20;;;10.52;;
66087;SDS011;52872;52.994;6.940;2023-03-01T14:57:15;14.82;;;10.68;;
66087;SDS011;52872;52.994;6.940;2023-03-01T14:59:45;14.52;;;11.70;;
66087;SDS011;52872;52.994;6.940;2023-03-01T15:02:16;11.73;;;10.32;;
66087;SDS011;52872;52.994;6.940;2023-03-01T15:04:55;13.77;;;10.43;;
66087;SDS011;52872;52.994;6.940;2023-03-01T15:07:26;14.02;;;10.95;;
66087;SDS011;52872;52.994;6.940;2023-03-01T15:09:58;14.05;;;12.52;;
66087;SDS011;52872;52.994;6.940;2023-03-01T15:14:59;17.60;;;12.20;;
66087;SDS011;52872;52.994;6.940;2023-03-01T15:17:36;14.93;;;11.95;;
66087;SDS011;52872;52.994;6.940;2023-03-01T15:20:06;15.15;;;12.95;;
66087;SDS011;52872;52.994;6.940;2023-03-01T15:22:43;14.63;;;12.45;;
66087;SDS011;52872;52.994;6.940;2023-03-01T15:25:17;14.00;;;12.38;;
66087;SDS011;52872;52.994;6.940;2023-03-01T15:27:46;16.63;;;13.70;;
66087;SDS011;52872;52.994;6.940;2023-03-01T15:30:18;14.23;;;12.77;;
66087;SDS011;52872;52.994;6.940;2023-03-01T15:35:48;15.70;;;12.23;;
66087;SDS011;52872;52.994;6.940;2023-03-01T15:41:01;15.35;;;12.93;;
66087;SDS011;52872;52.994;6.940;2023-03-01T15:43:46;15.27;;;13.25;;
66087;SDS011;52872;52.994;6.940;2023-03-01T15:46:15;15.95;;;12.73;;
66087;SDS011;52872;52.994;6.940;2023-03-01T15:48:50;20.98;;;16.02;;
66087;SDS011;52872;52.994;6.940;2023-03-01T15:51:41;18.58;;;16.30;;
66087;SDS011;52872;52.994;6.940;2023-03-01T15:54:14;18.65;;;13.55;;
66087;SDS011;52872;52.994;6.940;2023-03-01T15:56:45;30.65;;;24.08;;
66087;SDS011;52872;52.994;6.940;2023-03-01T15:59:12;19.63;;;15.55;;
66087;SDS011;52872;52.994;6.940;2023-03-01T16:01:40;19.05;;;14.48;;
66087;SDS011;52872;52.994;6.940;2023-03-01T16:04:09;18.67;;;14.60;;
66087;SDS011;52872;52.994;6.940;2023-03-01T16:06:39;20.95;;;16.08;;
66087;SDS011;52872;52.994;6.940;2023-03-01T16:09:09;18.45;;;13.68;;
66087;SDS011;52872;52.994;6.940;2023-03-01T16:11:38;18.08;;;14.02;;
66087;SDS011;52872;52.994;6.940;2023-03-01T16:14:07;18.10;;;14.70;;
66087;SDS011;52872;52.994;6.940;2023-03-01T16:16:35;19.42;;;14.05;;
66087;SDS011;52872;52.994;6.940;2023-03-01T16:19:02;19.38;;;14.75;;
66087;SDS011;52872;52.994;6.940;2023-03-01T16:21:29;16.60;;;14.05;;
66087;SDS011;52872;52.994;6.940;2023-03-01T16:23:57;20.58;;;14.35;;
66087;SDS011;52872;52.994;6.940;2023-03-01T16:26:24;22.70;;;20.13;;
66087;SDS011;52872;52.994;6.940;2023-03-01T16:28:53;18.52;;;13.75;;
66087;SDS011;52872;52.994;6.940;2023-03-01T16:31:22;18.23;;;14.30;;
66087;SDS011;52872;52.994;6.940;2023-03-01T16:33:53;19.30;;;14.68;;
66087;SDS011;52872;52.994;6.940;2023-03-01T16:36:21;22.55;;;14.35;;
66087;SDS011;52872;52.994;6.940;2023-03-01T16:38:58;22.20;;;17.30;;
66087;SDS011;52872;52.994;6.940;2023-03-01T16:41:26;20.35;;;15.52;;
66087;SDS011;52872;52.994;6.940;2023-03-01T16:43:55;20.60;;;15.05;;
66087;SDS011;52872;52.994;6.940;2023-03-01T16:46:24;22.77;;;15.15;;
66087;SDS011;52872;52.994;6.940;2023-03-01T16:48:54;18.95;;;14.15;;
66087;SDS011;52872;52.994;6.940;2023-03-01T16:51:21;20.42;;;14.65;;
66087;SDS011;52872;52.994;6.940;2023-03-01T16:53:49;22.70;;;15.10;;
66087;SDS011;52872;52.994;6.940;2023-03-01T16:56:17;19.92;;;14.32;;
66087;SDS011;52872;52.994;6.940;2023-03-01T16:58:45;34.92;;;23.50;;
66087;SDS011;52872;52.994;6.940;2023-03-01T17:01:16;22.15;;;13.70;;
66087;SDS011;52872;52.994;6.940;2023-03-01T17:03:45;22.88;;;15.43;;
66087;SDS011;52872;52.994;6.940;2023-03-01T17:06:14;24.05;;;16.92;;
66087;SDS011;52872;52.994;6.940;2023-03-01T17:08:43;20.15;;;15.13;;
66087;SDS011;52872;52.994;6.940;2023-03-01T17:11:11;22.10;;;17.90;;
66087;SDS011;52872;52.994;6.940;2023-03-01T17:13:40;20.90;;;15.80;;
66087;SDS011;52872;52.994;6.940;2023-03-01T17:16:09;23.92;;;17.88;;
66087;SDS011;52872;52.994;6.940;2023-03-01T17:18:38;21.10;;;16.25;;
66087;SDS011;52872;52.994;6.940;2023-03-01T17:21:06;21.05;;;15.00;;
66087;SDS011;52872;52.994;6.940;2023-03-01T17:23:34;21.70;;;16.05;;
66087;SDS011;52872;52.994;6.940;2023-03-01T17:26:02;24.10;;;17.23;;
66087;SDS011;52872;52.994;6.940;2023-03-01T17:28:30;21.05;;;16.90;;
66087;SDS011;52872;52.994;6.940;2023-03-01T17:30:59;22.50;;;16.98;;